sensor_id;sensor_type;location;lat;lon;timestamp;P1;durP1;ratioP1;P2;durP2;ratioP2
25810;SDS011;13645;52.460;13.910;2022-10-01T00:01:16;2.55;;;2.35;;
25810;SDS011;13645;52.460;13.910;2022-10-01T00:03:45;2.83;;;2.53;;
25810;SDS011;13645;52.460;13.910;2022-10-01T00:06:14;2.50;;;2.30;;
25810;SDS011;13645;52.460;13.910;2022-10-01T00:08:43;2.85;;;2.10;;
25810;SDS011;13645;52.460;13.910;2022-10-01T00:11:15;2.50;;;2.30;;
25810;SDS011;13645;52.460;13.910;2022-10-01T00:13:43;3.83;;;1.90;;
25810;SDS011;13645;52.460;13.910;2022-10-01T00:16:14;7.35;;;2.00;;
25810;SDS011;13645;52.460;13.910;2022-10-01T00:18:43;2.20;;;2.00;;
25810;SDS011;13645;52.460;13.910;2022-10-01T00:21:12;5.10;;;2.22;;
25810;SDS011;13645;52.460;13.910;2022-10-01T00:23:43;2.10;;;1.95;;
25810;SDS011;13645;52.460;13.910;2022-10-01T00:28:43;2.05;;;1.85;;
25810;SDS011;13645;52.460;13.910;2022-10-01T00:31:11;2.42;;;2.20;;
25810;SDS011;13645;52.460;13.910;2022-10-01T00:33:39;2.35;;;2.15;;
25810;SDS011;13645;52.460;13.910;2022-10-01T00:36:07;2.25;;;2.03;;
25810;SDS011;13645;52.460;13.910;2022-10-01T00:38:35;2.00;;;1.80;;
25810;SDS011;13645;52.460;13.910;2022-10-01T00:41:03;2.05;;;1.88;;
25810;SDS011;13645;52.460;13.910;2022-10-01T00:43:31;2.30;;;2.10;;
25810;SDS011;13645;52.460;13.910;2022-10-01T00:46:02;2.53;;;1.80;;
25810;SDS011;13645;52.460;13.910;2022-10-01T00:48:33;2.28;;;2.08;;
25810;SDS011;13645;52.460;13.910;2022-10-01T00:51:07;2.42;;;2.10;;
25810;SDS011;13645;52.460;13.910;2022-10-01T00:53:34;2.15;;;1.98;;
25810;SDS011;13645;52.460;13.910;2022-10-01T00:56:00;2.85;;;2.20;;
25810;SDS011;13645;52.460;13.910;2022-10-01T00:58:27;3.05;;;2.00;;
25810;SDS011;13645;52.460;13.910;2022-10-01T01:00:54;2.65;;;2.15;;
25810;SDS011;13645;52.460;13.910;2022-10-01T01:03:22;2.30;;;2.10;;
25810;SDS011;13645;52.460;13.910;2022-10-01T01:05:49;3.00;;;2.45;;
25810;SDS011;13645;52.460;13.910;2022-10-01T01:08:16;2.30;;;2.10;;
25810;SDS011;13645;52.460;13.910;2022-10-01T01:16:38;2.42;;;2.13;;
25810;SDS011;13645;52.460;13.910;2022-10-01T01:21:55;1.95;;;1.85;;
25810;SDS011;13645;52.460;13.910;2022-10-01T01:30:13;2.17;;;1.98;;
25810;SDS011;13645;52.460;13.910;2022-10-01T01:35:21;2.00;;;1.90;;
25810;SDS011;13645;52.460;13.910;2022-10-01T01:37:53;5.93;;;2.00;;
25810;SDS011;13645;52.460;13.910;2022-10-01T01:40:23;2.95;;;2.20;;
25810;SDS011;13645;52.460;13.910;2022-10-01T01:42:53;2.20;;;2.00;;
25810;SDS011;13645;52.460;13.910;2022-10-01T01:45:22;2.20;;;2.00;;
25810;SDS011;13645;52.460;13.910;2022-10-01T01:47:54;2.05;;;1.85;;
25810;SDS011;13645;52.460;13.910;2022-10-01T01:50:22;2.30;;;2.10;;
25810;SDS011;13645;52.460;13.910;2022-10-01T01:52:51;3.00;;;2.10;;
25810;SDS011;13645;52.460;13.910;2022-10-01T01:55:20;2.30;;;2.10;;
25810;SDS011;13645;52.460;13.910;2022-10-01T01:57:49;2.63;;;2.15;;
25810;SDS011;13645;52.460;13.910;2022-10-01T02:00:16;2.50;;;2.28;;
25810;SDS011;13645;52.460;13.910;2022-10-01T02:02:45;3.17;;;2.45;;
25810;SDS011;13645;52.460;13.910;2022-10-01T02:05:17;5.22;;;3.30;;
25810;SDS011;13645;52.460;13.910;2022-10-01T02:07:57;8.93;;;4.57;;
25810;SDS011;13645;52.460;13.910;2022-10-01T02:10:39;6.90;;;4.13;;
25810;SDS011;13645;52.460;13.910;2022-10-01T02:13:26;5.85;;;4.00;;
25810;SDS011;13645;52.460;13.910;2022-10-01T02:16:10;3.50;;;3.20;;
25810;SDS011;13645;52.460;13.910;2022-10-01T02:19:08;3.42;;;3.08;;
25810;SDS011;13645;52.460;13.910;2022-10-01T02:24:38;5.07;;;4.40;;
25810;SDS011;13645;52.460;13.910;2022-10-01T02:27:27;8.85;;;4.57;;
25810;SDS011;13645;52.460;13.910;2022-10-01T02:30:01;6.60;;;4.80;;
25810;SDS011;13645;52.460;13.910;2022-10-01T02:32:33;5.68;;;3.95;;
25810;SDS011;13645;52.460;13.910;2022-10-01T02:35:03;7.30;;;4.70;;
25810;SDS011;13645;52.460;13.910;2022-10-01T02:37:33;6.80;;;4.90;;
25810;SDS011;13645;52.460;13.910;2022-10-01T02:40:03;7.78;;;5.68;;
25810;SDS011;13645;52.460;13.910;2022-10-01T02:42:32;8.57;;;6.07;;
25810;SDS011;13645;52.460;13.910;2022-10-01T02:45:01;13.60;;;7.10;;
25810;SDS011;13645;52.460;13.910;2022-10-01T02:47:34;12.32;;;7.35;;
25810;SDS011;13645;52.460;13.910;2022-10-01T02:50:04;16.60;;;7.65;;
25810;SDS011;13645;52.460;13.910;2022-10-01T02:52:41;15.63;;;8.05;;
25810;SDS011;13645;52.460;13.910;2022-10-01T02:55:23;14.82;;;8.88;;
25810;SDS011;13645;52.460;13.910;2022-10-01T02:57:55;17.60;;;8.77;;
25810;SDS011;13645;52.460;13.910;2022-10-01T03:00:22;13.27;;;8.45;;
25810;SDS011;13645;52.460;13.910;2022-10-01T03:02:52;14.20;;;9.07;;
25810;SDS011;13645;52.460;13.910;2022-10-01T03:05:19;16.08;;;10.18;;
25810;SDS011;13645;52.460;13.910;2022-10-01T03:07:46;16.20;;;10.73;;
25810;SDS011;13645;52.460;13.910;2022-10-01T03:10:13;14.68;;;10.60;;
25810;SDS011;13645;52.460;13.910;2022-10-01T03:12:41;17.33;;;10.45;;
25810;SDS011;13645;52.460;13.910;2022-10-01T03:15:10;13.93;;;10.80;;
25810;SDS011;13645;52.460;13.910;2022-10-01T03:17:38;17.00;;;11.10;;
25810;SDS011;13645;52.460;13.910;2022-10-01T03:20:05;15.68;;;11.57;;
25810;SDS011;13645;52.460;13.910;2022-10-01T03:22:33;15.13;;;11.82;;
25810;SDS011;13645;52.460;13.910;2022-10-01T03:25:00;21.77;;;12.52;;
25810;SDS011;13645;52.460;13.910;2022-10-01T03:27:26;16.15;;;12.25;;
25810;SDS011;13645;52.460;13.910;2022-10-01T03:29:53;17.17;;;12.40;;
25810;SDS011;13645;52.460;13.910;2022-10-01T03:32:19;15.38;;;11.23;;
25810;SDS011;13645;52.460;13.910;2022-10-01T03:34:46;18.88;;;12.00;;
25810;SDS011;13645;52.460;13.910;2022-10-01T03:37:13;14.90;;;11.35;;
25810;SDS011;13645;52.460;13.910;2022-10-01T03:39:40;21.25;;;12.05;;
25810;SDS011;13645;52.460;13.910;2022-10-01T03:42:06;17.85;;;12.85;;
25810;SDS011;13645;52.460;13.910;2022-10-01T03:44:33;21.70;;;12.52;;
25810;SDS011;13645;52.460;13.910;2022-10-01T03:47:00;16.58;;;11.90;;
25810;SDS011;13645;52.460;13.910;2022-10-01T03:49:26;20.27;;;11.50;;
25810;SDS011;13645;52.460;13.910;2022-10-01T03:51:53;14.82;;;11.63;;
25810;SDS011;13645;52.460;13.910;2022-10-01T03:54:20;14.77;;;11.10;;
25810;SDS011;13645;52.460;13.910;2022-10-01T03:56:46;17.27;;;12.10;;
25810;SDS011;13645;52.460;13.910;2022-10-01T03:59:14;16.25;;;11.02;;
25810;SDS011;13645;52.460;13.910;2022-10-01T04:01:40;15.45;;;11.30;;
25810;SDS011;13645;52.460;13.910;2022-10-01T04:04:07;13.63;;;10.43;;
25810;SDS011;13645;52.460;13.910;2022-10-01T04:06:34;13.70;;;10.43;;
25810;SDS011;13645;52.460;13.910;2022-10-01T04:09:01;16.05;;;10.88;;
25810;SDS011;13645;52.460;13.910;2022-10-01T04:11:27;14.35;;;11.13;;
25810;SDS011;13645;52.460;13.910;2022-10-01T04:13:55;17.27;;;11.50;;
25810;SDS011;13645;52.460;13.910;2022-10-01T04:16:23;15.52;;;9.85;;
25810;SDS011;13645;52.460;13.910;2022-10-01T04:18:50;15.27;;;10.15;;
25810;SDS011;13645;52.460;13.910;2022-10-01T04:21:16;14.15;;;10.13;;
25810;SDS011;13645;52.460;13.910;2022-10-01T04:23:43;13.15;;;10.00;;
25810;SDS011;13645;52.460;13.910;2022-10-01T04:26:10;13.65;;;10.27;;
25810;SDS011;13645;52.460;13.910;2022-10-01T04:28:37;14.10;;;10.38;;
25810;SDS011;13645;52.460;13.910;2022-10-01T04:31:03;13.02;;;10.30;;
25810;SDS011;13645;52.460;13.910;2022-10-01T04:33:49;12.05;;;9.25;;
25810;SDS011;13645;52.460;13.910;2022-10-01T04:36:16;11.52;;;9.80;;
25810;SDS011;13645;52.460;13.910;2022-10-01T04:38:43;12.52;;;9.55;;
25810;SDS011;13645;52.460;13.910;2022-10-01T04:41:09;12.25;;;9.25;;
25810;SDS011;13645;52.460;13.910;2022-10-01T04:43:36;16.63;;;10.00;;
25810;SDS011;13645;52.460;13.910;2022-10-01T04:46:02;14.93;;;9.65;;
25810;SDS011;13645;52.460;13.910;2022-10-01T04:48:29;11.73;;;8.98;;
25810;SDS011;13645;52.460;13.910;2022-10-01T04:50:56;12.48;;;10.18;;
25810;SDS011;13645;52.460;13.910;2022-10-01T04:53:23;11.93;;;9.48;;
25810;SDS011;13645;52.460;13.910;2022-10-01T04:55:49;10.98;;;8.80;;
25810;SDS011;13645;52.460;13.910;2022-10-01T04:58:16;18.35;;;9.48;;
25810;SDS011;13645;52.460;13.910;2022-10-01T05:00:43;13.20;;;8.63;;
25810;SDS011;13645;52.460;13.910;2022-10-01T05:03:10;10.18;;;8.27;;
25810;SDS011;13645;52.460;13.910;2022-10-01T05:05:37;14.05;;;8.80;;
25810;SDS011;13645;52.460;13.910;2022-10-01T05:08:04;12.50;;;9.48;;
25810;SDS011;13645;52.460;13.910;2022-10-01T05:10:30;11.32;;;8.07;;
25810;SDS011;13645;52.460;13.910;2022-10-01T05:12:57;12.65;;;8.57;;
25810;SDS011;13645;52.460;13.910;2022-10-01T05:15:26;13.20;;;8.45;;
25810;SDS011;13645;52.460;13.910;2022-10-01T05:17:54;13.55;;;8.70;;
25810;SDS011;13645;52.460;13.910;2022-10-01T05:20:22;11.85;;;8.70;;
25810;SDS011;13645;52.460;13.910;2022-10-01T05:22:51;16.63;;;8.30;;
25810;SDS011;13645;52.460;13.910;2022-10-01T05:25:19;13.60;;;8.45;;
25810;SDS011;13645;52.460;13.910;2022-10-01T05:27:46;12.23;;;8.45;;
25810;SDS011;13645;52.460;13.910;2022-10-01T05:30:13;10.40;;;7.88;;
25810;SDS011;13645;52.460;13.910;2022-10-01T05:32:52;10.93;;;8.68;;
25810;SDS011;13645;52.460;13.910;2022-10-01T05:35:20;11.02;;;8.30;;
25810;SDS011;13645;52.460;13.910;2022-10-01T05:37:47;12.73;;;8.45;;
25810;SDS011;13645;52.460;13.910;2022-10-01T05:40:17;17.48;;;8.52;;
25810;SDS011;13645;52.460;13.910;2022-10-01T05:42:45;12.32;;;8.07;;
25810;SDS011;13645;52.460;13.910;2022-10-01T05:45:12;12.57;;;8.57;;
25810;SDS011;13645;52.460;13.910;2022-10-01T05:47:39;10.98;;;8.02;;
25810;SDS011;13645;52.460;13.910;2022-10-01T05:50:07;9.73;;;7.65;;
25810;SDS011;13645;52.460;13.910;2022-10-01T05:52:34;11.80;;;8.30;;
25810;SDS011;13645;52.460;13.910;2022-10-01T05:55:01;11.52;;;8.07;;
25810;SDS011;13645;52.460;13.910;2022-10-01T05:57:27;16.60;;;10.18;;
25810;SDS011;13645;52.460;13.910;2022-10-01T05:59:54;14.13;;;8.70;;
25810;SDS011;13645;52.460;13.910;2022-10-01T06:02:22;12.27;;;8.77;;
25810;SDS011;13645;52.460;13.910;2022-10-01T06:04:49;13.98;;;8.57;;
25810;SDS011;13645;52.460;13.910;2022-10-01T06:07:15;10.57;;;7.75;;
25810;SDS011;13645;52.460;13.910;2022-10-01T06:09:42;12.15;;;7.72;;
25810;SDS011;13645;52.460;13.910;2022-10-01T06:12:09;10.57;;;7.60;;
25810;SDS011;13645;52.460;13.910;2022-10-01T06:14:39;9.10;;;7.30;;
25810;SDS011;13645;52.460;13.910;2022-10-01T06:17:06;11.70;;;7.38;;
25810;SDS011;13645;52.460;13.910;2022-10-01T06:19:32;12.80;;;8.23;;
25810;SDS011;13645;52.460;13.910;2022-10-01T06:21:59;12.27;;;6.93;;
25810;SDS011;13645;52.460;13.910;2022-10-01T06:24:26;8.98;;;6.55;;
25810;SDS011;13645;52.460;13.910;2022-10-01T06:26:52;10.57;;;7.30;;
25810;SDS011;13645;52.460;13.910;2022-10-01T06:29:19;8.60;;;6.55;;
25810;SDS011;13645;52.460;13.910;2022-10-01T06:31:45;11.60;;;6.95;;
25810;SDS011;13645;52.460;13.910;2022-10-01T06:34:12;10.05;;;6.55;;
25810;SDS011;13645;52.460;13.910;2022-10-01T06:36:39;9.65;;;7.07;;
25810;SDS011;13645;52.460;13.910;2022-10-01T06:39:05;14.48;;;7.65;;
25810;SDS011;13645;52.460;13.910;2022-10-01T06:41:32;8.13;;;7.13;;
25810;SDS011;13645;52.460;13.910;2022-10-01T06:44:00;12.30;;;6.80;;
25810;SDS011;13645;52.460;13.910;2022-10-01T06:46:26;10.73;;;6.25;;
25810;SDS011;13645;52.460;13.910;2022-10-01T06:48:54;9.75;;;6.35;;
25810;SDS011;13645;52.460;13.910;2022-10-01T06:51:20;11.95;;;6.00;;
25810;SDS011;13645;52.460;13.910;2022-10-01T06:54:07;9.10;;;6.57;;
25810;SDS011;13645;52.460;13.910;2022-10-01T06:56:34;11.13;;;6.30;;
25810;SDS011;13645;52.460;13.910;2022-10-01T06:59:01;10.40;;;5.90;;
25810;SDS011;13645;52.460;13.910;2022-10-01T07:01:28;11.05;;;5.82;;
25810;SDS011;13645;52.460;13.910;2022-10-01T07:03:58;8.95;;;6.30;;
25810;SDS011;13645;52.460;13.910;2022-10-01T07:06:24;7.53;;;5.70;;
25810;SDS011;13645;52.460;13.910;2022-10-01T07:08:51;11.45;;;5.38;;
25810;SDS011;13645;52.460;13.910;2022-10-01T07:11:18;8.82;;;5.88;;
25810;SDS011;13645;52.460;13.910;2022-10-01T07:13:45;7.80;;;5.20;;
25810;SDS011;13645;52.460;13.910;2022-10-01T07:16:17;10.93;;;5.70;;
25810;SDS011;13645;52.460;13.910;2022-10-01T07:18:44;8.63;;;5.63;;
25810;SDS011;13645;52.460;13.910;2022-10-01T07:21:10;9.35;;;5.28;;
25810;SDS011;13645;52.460;13.910;2022-10-01T07:23:37;11.75;;;5.65;;
25810;SDS011;13645;52.460;13.910;2022-10-01T07:26:04;12.68;;;5.85;;
25810;SDS011;13645;52.460;13.910;2022-10-01T07:28:33;7.97;;;4.88;;
25810;SDS011;13645;52.460;13.910;2022-10-01T07:31:04;9.02;;;5.47;;
25810;SDS011;13645;52.460;13.910;2022-10-01T07:33:32;6.93;;;5.18;;
25810;SDS011;13645;52.460;13.910;2022-10-01T07:36:00;7.07;;;5.10;;
25810;SDS011;13645;52.460;13.910;2022-10-01T07:38:28;9.35;;;5.38;;
25810;SDS011;13645;52.460;13.910;2022-10-01T07:40:56;7.68;;;5.65;;
25810;SDS011;13645;52.460;13.910;2022-10-01T07:43:24;7.03;;;5.18;;
25810;SDS011;13645;52.460;13.910;2022-10-01T07:45:50;7.40;;;5.10;;
25810;SDS011;13645;52.460;13.910;2022-10-01T07:48:23;11.85;;;5.40;;
25810;SDS011;13645;52.460;13.910;2022-10-01T07:50:50;9.40;;;5.53;;
25810;SDS011;13645;52.460;13.910;2022-10-01T07:53:17;10.13;;;5.43;;
25810;SDS011;13645;52.460;13.910;2022-10-01T07:55:44;7.57;;;5.38;;
25810;SDS011;13645;52.460;13.910;2022-10-01T07:58:11;6.75;;;4.65;;
25810;SDS011;13645;52.460;13.910;2022-10-01T08:00:38;6.25;;;4.65;;
25810;SDS011;13645;52.460;13.910;2022-10-01T08:03:05;6.78;;;4.80;;
25810;SDS011;13645;52.460;13.910;2022-10-01T08:05:33;10.57;;;5.63;;
25810;SDS011;13645;52.460;13.910;2022-10-01T08:08:02;8.45;;;5.10;;
25810;SDS011;13645;52.460;13.910;2022-10-01T08:10:30;7.95;;;4.90;;
25810;SDS011;13645;52.460;13.910;2022-10-01T08:13:08;7.60;;;4.65;;
25810;SDS011;13645;52.460;13.910;2022-10-01T08:15:43;7.00;;;4.55;;
25810;SDS011;13645;52.460;13.910;2022-10-01T08:18:12;8.90;;;4.93;;
25810;SDS011;13645;52.460;13.910;2022-10-01T08:20:39;6.60;;;4.63;;
25810;SDS011;13645;52.460;13.910;2022-10-01T08:23:09;8.25;;;4.60;;
25810;SDS011;13645;52.460;13.910;2022-10-01T08:25:38;9.40;;;4.75;;
25810;SDS011;13645;52.460;13.910;2022-10-01T08:28:05;6.88;;;4.55;;
25810;SDS011;13645;52.460;13.910;2022-10-01T08:30:32;6.40;;;4.47;;
25810;SDS011;13645;52.460;13.910;2022-10-01T08:33:01;8.40;;;4.28;;
25810;SDS011;13645;52.460;13.910;2022-10-01T08:35:29;8.40;;;4.43;;
25810;SDS011;13645;52.460;13.910;2022-10-01T08:38:02;7.00;;;3.80;;
25810;SDS011;13645;52.460;13.910;2022-10-01T08:43:02;9.70;;;3.70;;
25810;SDS011;13645;52.460;13.910;2022-10-01T08:51:15;9.95;;;4.35;;
25810;SDS011;13645;52.460;13.910;2022-10-01T08:54:07;9.90;;;4.65;;
25810;SDS011;13645;52.460;13.910;2022-10-01T08:56:47;5.47;;;3.92;;
25810;SDS011;13645;52.460;13.910;2022-10-01T09:02:33;9.93;;;5.32;;
25810;SDS011;13645;52.460;13.910;2022-10-01T09:05:04;8.70;;;5.07;;
25810;SDS011;13645;52.460;13.910;2022-10-01T09:10:08;9.63;;;4.90;;
25810;SDS011;13645;52.460;13.910;2022-10-01T09:13:05;9.13;;;5.40;;
25810;SDS011;13645;52.460;13.910;2022-10-01T09:15:55;6.63;;;4.38;;
25810;SDS011;13645;52.460;13.910;2022-10-01T09:21:21;10.77;;;6.55;;
25810;SDS011;13645;52.460;13.910;2022-10-01T09:24:02;6.50;;;4.65;;
25810;SDS011;13645;52.460;13.910;2022-10-01T09:26:36;8.82;;;4.07;;
25810;SDS011;13645;52.460;13.910;2022-10-01T09:29:07;7.10;;;3.42;;
25810;SDS011;13645;52.460;13.910;2022-10-01T09:31:40;21.40;;;11.68;;
25810;SDS011;13645;52.460;13.910;2022-10-01T09:34:14;34.30;;;17.98;;
25810;SDS011;13645;52.460;13.910;2022-10-01T09:39:58;10.73;;;6.03;;
25810;SDS011;13645;52.460;13.910;2022-10-01T09:42:44;17.17;;;5.97;;
25810;SDS011;13645;52.460;13.910;2022-10-01T09:45:13;7.10;;;3.60;;
25810;SDS011;13645;52.460;13.910;2022-10-01T09:47:41;5.25;;;3.40;;
25810;SDS011;13645;52.460;13.910;2022-10-01T09:50:13;12.07;;;5.70;;
25810;SDS011;13645;52.460;13.910;2022-10-01T09:52:43;8.32;;;3.97;;
25810;SDS011;13645;52.460;13.910;2022-10-01T09:57:49;8.57;;;4.50;;
25810;SDS011;13645;52.460;13.910;2022-10-01T10:00:22;14.27;;;9.23;;
25810;SDS011;13645;52.460;13.910;2022-10-01T10:02:51;7.68;;;2.85;;
25810;SDS011;13645;52.460;13.910;2022-10-01T10:05:23;5.82;;;2.50;;
25810;SDS011;13645;52.460;13.910;2022-10-01T10:07:53;3.45;;;2.55;;
25810;SDS011;13645;52.460;13.910;2022-10-01T10:13:01;5.13;;;2.53;;
25810;SDS011;13645;52.460;13.910;2022-10-01T10:15:52;5.20;;;2.90;;
25810;SDS011;13645;52.460;13.910;2022-10-01T10:21:00;8.57;;;2.38;;
25810;SDS011;13645;52.460;13.910;2022-10-01T10:23:29;4.78;;;3.03;;
25810;SDS011;13645;52.460;13.910;2022-10-01T10:26:00;4.95;;;3.00;;
25810;SDS011;13645;52.460;13.910;2022-10-01T10:28:37;3.80;;;2.50;;
25810;SDS011;13645;52.460;13.910;2022-10-01T10:31:29;5.55;;;2.55;;
25810;SDS011;13645;52.460;13.910;2022-10-01T10:34:14;4.03;;;2.40;;
25810;SDS011;13645;52.460;13.910;2022-10-01T10:36:41;3.45;;;2.03;;
25810;SDS011;13645;52.460;13.910;2022-10-01T10:39:14;5.13;;;2.03;;
25810;SDS011;13645;52.460;13.910;2022-10-01T10:41:54;3.55;;;2.30;;
25810;SDS011;13645;52.460;13.910;2022-10-01T10:44:24;7.10;;;3.08;;
25810;SDS011;13645;52.460;13.910;2022-10-01T10:47:02;10.57;;;6.88;;
25810;SDS011;13645;52.460;13.910;2022-10-01T10:52:31;10.10;;;5.90;;
25810;SDS011;13645;52.460;13.910;2022-10-01T10:55:15;3.95;;;2.80;;
25810;SDS011;13645;52.460;13.910;2022-10-01T10:57:44;3.65;;;2.20;;
25810;SDS011;13645;52.460;13.910;2022-10-01T11:00:13;3.40;;;2.15;;
25810;SDS011;13645;52.460;13.910;2022-10-01T11:02:54;4.75;;;3.58;;
25810;SDS011;13645;52.460;13.910;2022-10-01T11:05:27;4.72;;;2.80;;
25810;SDS011;13645;52.460;13.910;2022-10-01T11:07:58;3.38;;;2.45;;
25810;SDS011;13645;52.460;13.910;2022-10-01T11:10:50;5.43;;;2.42;;
25810;SDS011;13645;52.460;13.910;2022-10-01T11:13:43;2.75;;;1.88;;
25810;SDS011;13645;52.460;13.910;2022-10-01T11:16:38;4.32;;;2.80;;
25810;SDS011;13645;52.460;13.910;2022-10-01T11:19:26;5.47;;;1.98;;
25810;SDS011;13645;52.460;13.910;2022-10-01T11:22:23;3.13;;;2.38;;
25810;SDS011;13645;52.460;13.910;2022-10-01T11:27:47;5.15;;;2.38;;
25810;SDS011;13645;52.460;13.910;2022-10-01T11:35:50;6.72;;;2.50;;
25810;SDS011;13645;52.460;13.910;2022-10-01T11:41:33;4.60;;;2.40;;
25810;SDS011;13645;52.460;13.910;2022-10-01T11:47:17;2.85;;;2.45;;
25810;SDS011;13645;52.460;13.910;2022-10-01T11:50:22;3.80;;;2.47;;
25810;SDS011;13645;52.460;13.910;2022-10-01T11:55:20;5.72;;;2.70;;
25810;SDS011;13645;52.460;13.910;2022-10-01T12:01:07;37.15;;;19.27;;
25810;SDS011;13645;52.460;13.910;2022-10-01T12:06:19;38.50;;;16.75;;
25810;SDS011;13645;52.460;13.910;2022-10-01T12:09:08;39.90;;;19.60;;
25810;SDS011;13645;52.460;13.910;2022-10-01T12:14:47;12.57;;;6.18;;
25810;SDS011;13645;52.460;13.910;2022-10-01T12:17:33;32.50;;;11.07;;
25810;SDS011;13645;52.460;13.910;2022-10-01T12:20:15;6.18;;;3.50;;
25810;SDS011;13645;52.460;13.910;2022-10-01T12:23:04;11.25;;;4.78;;
25810;SDS011;13645;52.460;13.910;2022-10-01T12:25:43;7.47;;;3.20;;
25810;SDS011;13645;52.460;13.910;2022-10-01T12:28:56;10.13;;;3.67;;
25810;SDS011;13645;52.460;13.910;2022-10-01T12:34:30;4.15;;;2.78;;
25810;SDS011;13645;52.460;13.910;2022-10-01T12:40:07;11.65;;;3.85;;
25810;SDS011;13645;52.460;13.910;2022-10-01T12:45:42;8.65;;;2.42;;
25810;SDS011;13645;52.460;13.910;2022-10-01T12:58:50;4.20;;;3.00;;
25810;SDS011;13645;52.460;13.910;2022-10-01T13:07:25;8.35;;;3.20;;
25810;SDS011;13645;52.460;13.910;2022-10-01T13:12:55;5.47;;;2.95;;
25810;SDS011;13645;52.460;13.910;2022-10-01T13:24:59;6.38;;;2.13;;
25810;SDS011;13645;52.460;13.910;2022-10-01T13:30:18;7.20;;;2.75;;
25810;SDS011;13645;52.460;13.910;2022-10-01T13:32:55;3.83;;;2.20;;
25810;SDS011;13645;52.460;13.910;2022-10-01T13:35:30;5.38;;;2.13;;
25810;SDS011;13645;52.460;13.910;2022-10-01T13:38:14;9.70;;;3.08;;
25810;SDS011;13645;52.460;13.910;2022-10-01T13:40:42;9.98;;;4.00;;
25810;SDS011;13645;52.460;13.910;2022-10-01T13:43:16;5.57;;;2.97;;
25810;SDS011;13645;52.460;13.910;2022-10-01T13:45:47;5.35;;;2.70;;
25810;SDS011;13645;52.460;13.910;2022-10-01T13:48:19;7.28;;;3.30;;
25810;SDS011;13645;52.460;13.910;2022-10-01T13:50:56;10.00;;;3.38;;
25810;SDS011;13645;52.460;13.910;2022-10-01T13:53:29;4.43;;;2.65;;
25810;SDS011;13645;52.460;13.910;2022-10-01T13:55:58;4.60;;;3.00;;
25810;SDS011;13645;52.460;13.910;2022-10-01T14:00:56;3.65;;;2.63;;
25810;SDS011;13645;52.460;13.910;2022-10-01T14:06:00;5.00;;;2.40;;
25810;SDS011;13645;52.460;13.910;2022-10-01T14:08:31;3.45;;;2.67;;
25810;SDS011;13645;52.460;13.910;2022-10-01T14:11:08;4.10;;;2.80;;
25810;SDS011;13645;52.460;13.910;2022-10-01T14:14:01;3.92;;;2.78;;
25810;SDS011;13645;52.460;13.910;2022-10-01T14:16:53;4.57;;;3.40;;
25810;SDS011;13645;52.460;13.910;2022-10-01T14:19:22;6.50;;;3.22;;
25810;SDS011;13645;52.460;13.910;2022-10-01T14:21:59;4.78;;;2.95;;
25810;SDS011;13645;52.460;13.910;2022-10-01T14:25:01;6.30;;;3.60;;
25810;SDS011;13645;52.460;13.910;2022-10-01T14:33:15;5.20;;;2.53;;
25810;SDS011;13645;52.460;13.910;2022-10-01T14:35:59;23.00;;;11.27;;
25810;SDS011;13645;52.460;13.910;2022-10-01T14:38:42;10.10;;;6.32;;
25810;SDS011;13645;52.460;13.910;2022-10-01T14:41:19;8.48;;;3.92;;
25810;SDS011;13645;52.460;13.910;2022-10-01T14:43:48;3.35;;;2.78;;
25810;SDS011;13645;52.460;13.910;2022-10-01T14:46:16;8.75;;;5.22;;
25810;SDS011;13645;52.460;13.910;2022-10-01T14:48:43;4.82;;;3.20;;
25810;SDS011;13645;52.460;13.910;2022-10-01T14:51:25;3.90;;;2.85;;
25810;SDS011;13645;52.460;13.910;2022-10-01T14:53:53;2.95;;;2.50;;
25810;SDS011;13645;52.460;13.910;2022-10-01T14:56:22;3.00;;;2.45;;
25810;SDS011;13645;52.460;13.910;2022-10-01T14:58:57;4.20;;;2.28;;
25810;SDS011;13645;52.460;13.910;2022-10-01T15:01:27;7.03;;;2.30;;
25810;SDS011;13645;52.460;13.910;2022-10-01T15:03:54;3.03;;;2.58;;
25810;SDS011;13645;52.460;13.910;2022-10-01T15:06:22;3.17;;;2.47;;
25810;SDS011;13645;52.460;13.910;2022-10-01T15:09:01;7.15;;;3.10;;
25810;SDS011;13645;52.460;13.910;2022-10-01T15:11:35;3.55;;;2.70;;
25810;SDS011;13645;52.460;13.910;2022-10-01T15:14:11;6.97;;;4.55;;
25810;SDS011;13645;52.460;13.910;2022-10-01T15:16:43;7.70;;;4.22;;
25810;SDS011;13645;52.460;13.910;2022-10-01T15:19:14;9.32;;;5.10;;
25810;SDS011;13645;52.460;13.910;2022-10-01T15:24:56;3.80;;;2.53;;
25810;SDS011;13645;52.460;13.910;2022-10-01T15:27:10;6.10;;;3.45;;
25810;SDS011;13645;52.460;13.910;2022-10-01T15:29:39;8.20;;;3.92;;
25810;SDS011;13645;52.460;13.910;2022-10-01T15:32:08;5.55;;;4.60;;
25810;SDS011;13645;52.460;13.910;2022-10-01T15:34:38;9.30;;;3.28;;
25810;SDS011;13645;52.460;13.910;2022-10-01T15:37:09;4.00;;;2.20;;
25810;SDS011;13645;52.460;13.910;2022-10-01T15:39:42;5.15;;;3.90;;
25810;SDS011;13645;52.460;13.910;2022-10-01T15:42:19;4.10;;;3.10;;
25810;SDS011;13645;52.460;13.910;2022-10-01T15:47:34;2.97;;;2.05;;
25810;SDS011;13645;52.460;13.910;2022-10-01T15:57:49;3.92;;;2.88;;
25810;SDS011;13645;52.460;13.910;2022-10-01T16:03:24;4.00;;;2.00;;
25810;SDS011;13645;52.460;13.910;2022-10-01T16:05:55;6.35;;;5.07;;
25810;SDS011;13645;52.460;13.910;2022-10-01T16:08:24;3.42;;;2.58;;
25810;SDS011;13645;52.460;13.910;2022-10-01T16:13:45;5.30;;;2.80;;
25810;SDS011;13645;52.460;13.910;2022-10-01T16:16:19;4.40;;;2.60;;
25810;SDS011;13645;52.460;13.910;2022-10-01T16:24:56;6.28;;;2.88;;
25810;SDS011;13645;52.460;13.910;2022-10-01T16:27:30;2.05;;;1.77;;
25810;SDS011;13645;52.460;13.910;2022-10-01T16:30:02;3.38;;;1.80;;
25810;SDS011;13645;52.460;13.910;2022-10-01T16:32:34;2.67;;;2.10;;
25810;SDS011;13645;52.460;13.910;2022-10-01T16:35:20;2.92;;;2.10;;
25810;SDS011;13645;52.460;13.910;2022-10-01T16:37:47;3.45;;;1.40;;
25810;SDS011;13645;52.460;13.910;2022-10-01T16:40:16;3.35;;;1.90;;
25810;SDS011;13645;52.460;13.910;2022-10-01T16:42:44;2.42;;;2.03;;
25810;SDS011;13645;52.460;13.910;2022-10-01T16:45:13;3.08;;;2.35;;
25810;SDS011;13645;52.460;13.910;2022-10-01T16:47:41;3.55;;;1.50;;
25810;SDS011;13645;52.460;13.910;2022-10-01T16:50:11;6.25;;;2.35;;
25810;SDS011;13645;52.460;13.910;2022-10-01T16:52:40;2.88;;;2.42;;
25810;SDS011;13645;52.460;13.910;2022-10-01T16:55:18;7.05;;;3.00;;
25810;SDS011;13645;52.460;13.910;2022-10-01T16:57:51;5.47;;;3.30;;
25810;SDS011;13645;52.460;13.910;2022-10-01T17:00:22;6.15;;;2.20;;
25810;SDS011;13645;52.460;13.910;2022-10-01T17:02:51;5.53;;;2.00;;
25810;SDS011;13645;52.460;13.910;2022-10-01T17:05:26;3.08;;;2.35;;
25810;SDS011;13645;52.460;13.910;2022-10-01T17:07:56;3.47;;;2.33;;
25810;SDS011;13645;52.460;13.910;2022-10-01T17:10:26;1.73;;;1.50;;
25810;SDS011;13645;52.460;13.910;2022-10-01T17:12:56;2.38;;;1.85;;
25810;SDS011;13645;52.460;13.910;2022-10-01T17:15:25;2.65;;;1.83;;
25810;SDS011;13645;52.460;13.910;2022-10-01T17:17:53;3.90;;;1.75;;
25810;SDS011;13645;52.460;13.910;2022-10-01T17:20:20;1.67;;;1.58;;
25810;SDS011;13645;52.460;13.910;2022-10-01T17:22:47;2.83;;;1.90;;
25810;SDS011;13645;52.460;13.910;2022-10-01T17:25:22;8.13;;;5.05;;
25810;SDS011;13645;52.460;13.910;2022-10-01T17:27:51;29.73;;;16.75;;
25810;SDS011;13645;52.460;13.910;2022-10-01T17:30:17;17.85;;;10.55;;